Time;durP1;ratioP1;P1;durP2;ratioP2;P2;SDS_P1;SDS_P2;PMS_P1;PMS_P2;Temp;Humidity;BMP_temperature;BMP_pressure;BME280_temperature;BME280_humidity;BME280_pressure;Samples;Min_cycle;Max_cycle;Signal;HPM_P1;HPM_P2
2023/04/03 00:01:38;;;;;;;14.33;5.60;;;;;;;;;;5111145;28;20231;-80
2023/04/03 00:04:05;;;;;;;16.97;4.80;;;;;;;;;;5111235;28;20682;-80
2023/04/03 00:06:34;;;;;;;15.47;4.30;;;;;;;;;;5111526;28;20197;-80
2023/04/03 00:09:02;;;;;;;13.53;4.37;;;;;;;;;;5111522;28;20199;-80
2023/04/03 00:11:29;;;;;;;12.37;4.03;;;;;;;;;;5111099;28;20210;-80
2023/04/03 00:13:56;;;;;;;13.03;4.30;;;;;;;;;;5111256;28;20253;-79
2023/04/03 00:16:23;;;;;;;13.03;4.40;;;;;;;;;;5111474;28;20285;-79
2023/04/03 00:18:50;;;;;;;17.30;4.40;;;;;;;;;;5111149;28;20258;-80
2023/04/03 00:21:18;;;;;;;13.23;4.27;;;;;;;;;;5113991;28;20229;-79
2023/04/03 00:23:46;;;;;;;12.13;4.00;;;;;;;;;;5115455;28;20678;-79
2023/04/03 00:26:14;;;;;;;14.30;3.90;;;;;;;;;;5115106;28;20290;-79
2023/04/03 00:28:41;;;;;;;12.57;4.60;;;;;;;;;;5115357;28;20581;-80
2023/04/03 00:31:08;;;;;;;13.50;3.80;;;;;;;;;;5115367;28;20197;-80
2023/04/03 00:33:35;;;;;;;17.53;4.00;;;;;;;;;;5114864;28;20597;-79
2023/04/03 00:36:06;;;;;;;16.27;4.03;;;;;;;;;;5114611;28;20281;-79
2023/04/03 00:38:34;;;;;;;10.80;4.30;;;;;;;;;;5115670;28;20282;-79
2023/04/03 00:41:03;;;;;;;16.13;4.20;;;;;;;;;;5115200;28;20226;-79
2023/04/03 00:43:30;;;;;;;12.53;3.73;;;;;;;;;;5114629;28;20292;-80
2023/04/03 00:45:58;;;;;;;17.73;4.13;;;;;;;;;;5114591;28;20296;-78
2023/04/03 00:48:28;;;;;;;16.97;4.60;;;;;;;;;;5114591;28;20317;-80
2023/04/03 00:50:55;;;;;;;14.73;4.13;;;;;;;;;;5114712;28;20192;-79
2023/04/03 00:53:23;;;;;;;14.63;4.23;;;;;;;;;;5114867;28;20232;-80
2023/04/03 00:55:51;;;;;;;13.57;4.03;;;;;;;;;;5114528;28;20283;-80
2023/04/03 00:58:21;;;;;;;14.83;4.07;;;;;;;;;;5114529;28;20285;-79
2023/04/03 01:00:51;;;;;;;17.00;4.20;;;;;;;;;;5114441;28;20236;-79
2023/04/03 01:03:18;;;;;;;12.70;3.63;;;;;;;;;;5114417;28;20234;-79
2023/04/03 01:05:45;;;;;;;12.67;4.40;;;;;;;;;;5113906;28;20230;-80
2023/04/03 01:08:13;;;;;;;12.93;4.33;;;;;;;;;;5114411;28;20198;-79
2023/04/03 01:10:40;;;;;;;13.97;3.63;;;;;;;;;;5114341;28;20225;-79
2023/04/03 01:13:19;;;;;;;13.07;3.77;;;;;;;;;;5113916;28;20257;-80
2023/04/03 01:15:48;;;;;;;10.87;3.90;;;;;;;;;;5114270;28;20758;-80
2023/04/03 01:18:15;;;;;;;15.20;4.17;;;;;;;;;;5113978;28;20221;-79
2023/04/03 01:21:10;;;;;;;11.43;3.70;;;;;;;;;;5114286;28;20288;-80
2023/04/03 01:23:47;;;;;;;18.93;4.40;;;;;;;;;;5114183;28;20795;-79
2023/04/03 01:26:14;;;;;;;10.90;3.70;;;;;;;;;;5114047;28;20236;-79
2023/04/03 01:28:42;;;;;;;13.43;4.30;;;;;;;;;;5113881;28;20255;-80
2023/04/03 01:31:15;;;;;;;20.60;4.63;;;;;;;;;;5113626;28;20293;-80
2023/04/03 01:33:43;;;;;;;14.27;4.43;;;;;;;;;;5113705;28;20226;-80
2023/04/03 01:36:11;;;;;;;12.17;4.50;;;;;;;;;;5105941;28;20674;-77
2023/04/03 01:38:39;;;;;;;14.50;4.60;;;;;;;;;;5093400;28;20300;-79
2023/04/03 01:41:06;;;;;;;11.40;4.27;;;;;;;;;;5093187;28;20740;-79
2023/04/03 01:43:33;;;;;;;18.23;4.80;;;;;;;;;;5093551;28;20278;-80
2023/04/03 01:46:00;;;;;;;12.50;4.23;;;;;;;;;;5093742;28;20228;-79
2023/04/03 01:48:27;;;;;;;14.17;4.47;;;;;;;;;;5092828;28;20725;-79
2023/04/03 01:50:56;;;;;;;10.40;4.27;;;;;;;;;;5093316;28;20225;-79
2023/04/03 01:53:23;;;;;;;14.10;3.90;;;;;;;;;;5092996;28;20328;-80
2023/04/03 01:55:50;;;;;;;15.70;4.60;;;;;;;;;;5092960;28;20292;-79
2023/04/03 01:58:18;;;;;;;12.60;3.97;;;;;;;;;;5093409;28;20291;-79
2023/04/03 02:00:45;;;;;;;12.30;4.10;;;;;;;;;;5093193;28;20292;-79
2023/04/03 02:03:12;;;;;;;14.23;3.47;;;;;;;;;;5092854;28;20633;-80
2023/04/03 02:05:40;;;;;;;14.40;4.60;;;;;;;;;;5092704;28;20289;-81
2023/04/03 02:08:08;;;;;;;16.80;4.13;;;;;;;;;;5092678;28;20562;-81
2023/04/03 02:10:35;;;;;;;11.77;3.70;;;;;;;;;;5093310;28;20253;-80
2023/04/03 02:13:02;;;;;;;10.00;3.80;;;;;;;;;;5100451;28;20305;-80
2023/04/03 02:15:30;;;;;;;14.17;3.50;;;;;;;;;;5112855;28;20250;-80
2023/04/03 02:17:57;;;;;;;12.33;3.90;;;;;;;;;;5113076;28;20236;-80
2023/04/03 02:20:24;;;;;;;13.77;4.13;;;;;;;;;;5113300;28;20280;-80
2023/04/03 02:22:51;;;;;;;14.53;4.37;;;;;;;;;;5113188;28;20857;-79
2023/04/03 02:25:20;;;;;;;15.17;3.77;;;;;;;;;;5113099;28;20231;-79
2023/04/03 02:27:47;;;;;;;12.77;3.60;;;;;;;;;;5112755;28;20287;-79
2023/04/03 02:30:15;;;;;;;12.27;4.10;;;;;;;;;;5112085;28;20203;-79
2023/04/03 02:32:42;;;;;;;12.90;4.07;;;;;;;;;;5112027;28;20192;-79
2023/04/03 02:35:10;;;;;;;14.70;4.23;;;;;;;;;;5112246;28;20641;-79
2023/04/03 02:37:37;;;;;;;19.23;4.77;;;;;;;;;;5112749;28;20290;-78
2023/04/03 02:40:05;;;;;;;16.17;4.47;;;;;;;;;;5112448;28;20236;-79
2023/04/03 02:42:34;;;;;;;12.97;4.27;;;;;;;;;;5112266;28;20245;-80
2023/04/03 02:45:01;;;;;;;14.03;3.97;;;;;;;;;;5112201;28;20233;-79
2023/04/03 02:47:28;;;;;;;13.13;3.87;;;;;;;;;;5111973;28;20714;-79
2023/04/03 02:49:55;;;;;;;14.73;4.27;;;;;;;;;;5112186;28;20289;-78
2023/04/03 02:52:23;;;;;;;12.70;4.27;;;;;;;;;;5112488;28;20221;-80
2023/04/03 02:54:50;;;;;;;12.90;4.20;;;;;;;;;;5112476;28;20316;-79
2023/04/03 02:57:17;;;;;;;12.07;4.37;;;;;;;;;;5112440;28;20225;-79
2023/04/03 02:59:46;;;;;;;8.50;3.40;;;;;;;;;;5111695;28;20299;-79
2023/04/03 03:02:13;;;;;;;11.03;3.93;;;;;;;;;;5112058;28;20228;-78
2023/04/03 03:04:40;;;;;;;10.93;3.70;;;;;;;;;;5112526;28;20233;-79
2023/04/03 03:07:07;;;;;;;10.70;5.37;;;;;;;;;;5111614;28;20300;-79
2023/04/03 03:09:34;;;;;;;11.53;3.93;;;;;;;;;;5111984;28;20285;-79
2023/04/03 03:12:02;;;;;;;11.23;4.13;;;;;;;;;;5111944;28;20732;-79
2023/04/03 03:14:29;;;;;;;11.90;4.53;;;;;;;;;;5111463;28;20314;-78
2023/04/03 03:16:57;;;;;;;12.40;4.40;;;;;;;;;;5112167;28;20187;-79
2023/04/03 03:19:24;;;;;;;16.43;4.43;;;;;;;;;;5112048;28;20669;-79
2023/04/03 03:21:52;;;;;;;11.73;4.40;;;;;;;;;;5112527;28;20276;-78
2023/04/03 03:24:19;;;;;;;10.67;4.23;;;;;;;;;;5111794;28;20194;-79
2023/04/03 03:26:46;;;;;;;13.00;4.60;;;;;;;;;;5111431;28;20288;-79
2023/04/03 03:29:14;;;;;;;11.57;4.40;;;;;;;;;;5111323;28;20719;-79
2023/04/03 03:31:41;;;;;;;21.03;4.90;;;;;;;;;;5112251;28;20202;-79
2023/04/03 03:34:09;;;;;;;19.57;5.20;;;;;;;;;;5111786;28;20318;-78
2023/04/03 03:36:37;;;;;;;14.33;5.20;;;;;;;;;;5112054;28;20287;-79
2023/04/03 03:39:04;;;;;;;14.37;5.90;;;;;;;;;;5111860;28;20550;-79
2023/04/03 03:41:31;;;;;;;15.60;6.10;;;;;;;;;;5111541;28;20719;-78
2023/04/03 03:43:58;;;;;;;10.33;5.53;;;;;;;;;;5111659;28;20286;-78
2023/04/03 03:46:25;;;;;;;14.87;6.13;;;;;;;;;;5109248;28;20283;-79
2023/04/03 03:48:53;;;;;;;16.10;6.30;;;;;;;;;;5110850;28;20771;-79
2023/04/03 03:51:21;;;;;;;16.10;6.40;;;;;;;;;;5102262;28;20741;-79
2023/04/03 03:53:48;;;;;;;16.10;5.90;;;;;;;;;;5092095;28;20331;-78
2023/04/03 03:56:15;;;;;;;16.77;6.30;;;;;;;;;;5115019;28;20232;-79
2023/04/03 03:58:43;;;;;;;12.70;6.13;;;;;;;;;;5109778;28;20291;-79
2023/04/03 04:01:10;;;;;;;13.73;6.63;;;;;;;;;;5098011;28;20196;-79
2023/04/03 04:03:37;;;;;;;15.80;6.77;;;;;;;;;;5098148;28;20332;-79
2023/04/03 04:06:04;;;;;;;14.20;6.70;;;;;;;;;;5097639;28;20291;-78
2023/04/03 04:08:33;;;;;;;12.20;6.70;;;;;;;;;;5097670;28;20202;-78
2023/04/03 04:11:00;;;;;;;16.00;6.90;;;;;;;;;;5098030;28;20225;-79
2023/04/03 04:13:27;;;;;;;18.37;7.70;;;;;;;;;;5108313;28;20318;-78
2023/04/03 04:15:54;;;;;;;15.30;7.17;;;;;;;;;;5118528;28;20286;-79
2023/04/03 04:18:22;;;;;;;14.60;7.20;;;;;;;;;;5118225;28;20237;-79
2023/04/03 04:20:49;;;;;;;12.27;7.33;;;;;;;;;;5118180;28;20198;-79
2023/04/03 04:23:17;;;;;;;14.03;7.70;;;;;;;;;;5118173;28;20234;-79
2023/04/03 04:25:47;;;;;;;18.13;7.97;;;;;;;;;;5118328;28;20232;-79
2023/04/03 04:28:14;;;;;;;15.17;7.40;;;;;;;;;;5117493;28;20232;-79
2023/04/03 04:30:41;;;;;;;14.27;7.57;;;;;;;;;;5118037;27;20685;-78
2023/04/03 04:33:09;;;;;;;16.23;7.73;;;;;;;;;;5117646;28;20320;-79
2023/04/03 04:35:37;;;;;;;10.80;7.30;;;;;;;;;;5117733;28;20232;-78
2023/04/03 04:38:04;;;;;;;15.50;7.87;;;;;;;;;;5118257;28;20290;-78
2023/04/03 04:40:31;;;;;;;15.23;8.40;;;;;;;;;;5117997;28;20200;-81
2023/04/03 04:43:00;;;;;;;13.77;8.13;;;;;;;;;;5115202;28;20287;-79
2023/04/03 04:45:27;;;;;;;13.07;7.93;;;;;;;;;;5097606;28;20643;-79
2023/04/03 04:47:56;;;;;;;15.03;7.83;;;;;;;;;;5097302;28;20320;-78
2023/04/03 04:50:24;;;;;;;15.53;7.53;;;;;;;;;;5097383;28;20197;-79
2023/04/03 04:52:51;;;;;;;11.33;7.50;;;;;;;;;;5097558;28;20236;-79
2023/04/03 04:55:18;;;;;;;16.30;7.83;;;;;;;;;;5097189;28;20329;-79
2023/04/03 04:57:45;;;;;;;15.03;7.80;;;;;;;;;;5097033;28;20242;-79
2023/04/03 05:00:15;;;;;;;12.50;8.40;;;;;;;;;;5097794;28;20287;-78
2023/04/03 05:02:42;;;;;;;12.47;7.83;;;;;;;;;;5096920;28;20644;-77
2023/04/03 05:05:10;;;;;;;13.50;8.33;;;;;;;;;;5098935;28;20240;-80
2023/04/03 05:07:37;;;;;;;12.27;8.17;;;;;;;;;;5113919;28;20253;-80
2023/04/03 05:10:05;;;;;;;13.43;7.87;;;;;;;;;;5114460;28;20236;-80
2023/04/03 05:12:32;;;;;;;11.53;8.03;;;;;;;;;;5113741;28;20292;-80
2023/04/03 05:14:59;;;;;;;12.97;8.30;;;;;;;;;;5114344;28;20316;-79
2023/04/03 05:17:28;;;;;;;12.77;8.90;;;;;;;;;;5113518;28;20288;-79
2023/04/03 05:19:55;;;;;;;14.60;8.73;;;;;;;;;;5113988;28;20266;-80
2023/04/03 05:22:22;;;;;;;12.57;8.63;;;;;;;;;;5114408;28;20232;-78
2023/04/03 05:24:50;;;;;;;11.30;8.17;;;;;;;;;;5113991;28;20225;-77
2023/04/03 05:27:17;;;;;;;11.10;8.47;;;;;;;;;;5113857;28;20193;-79
2023/04/03 05:29:44;;;;;;;15.90;8.40;;;;;;;;;;5114053;28;20197;-79
2023/04/03 05:32:12;;;;;;;12.53;7.93;;;;;;;;;;5114325;28;20225;-79
2023/04/03 05:34:40;;;;;;;12.77;8.17;;;;;;;;;;5113933;28;20675;-76
2023/04/03 05:37:07;;;;;;;12.07;8.47;;;;;;;;;;5114336;28;20280;-76
2023/04/03 05:39:35;;;;;;;13.93;8.53;;;;;;;;;;5113563;28;20267;-76
2023/04/03 05:42:02;;;;;;;11.87;9.07;;;;;;;;;;5090775;28;20305;-77
2023/04/03 05:44:29;;;;;;;15.30;9.13;;;;;;;;;;5104165;28;20296;-78
2023/04/03 05:46:56;;;;;;;13.90;8.40;;;;;;;;;;5104621;28;20622;-78
2023/04/03 05:49:24;;;;;;;13.40;8.27;;;;;;;;;;5102337;28;20584;-77
2023/04/03 05:51:52;;;;;;;14.73;8.67;;;;;;;;;;5104921;28;20263;-77
2023/04/03 05:54:20;;;;;;;12.43;8.17;;;;;;;;;;5106621;28;20222;-78
2023/04/03 05:56:48;;;;;;;14.33;8.60;;;;;;;;;;5098222;28;20270;-76
2023/04/03 05:59:15;;;;;;;12.87;8.13;;;;;;;;;;5111259;28;20191;-77
2023/04/03 06:01:42;;;;;;;10.73;8.40;;;;;;;;;;5112051;28;20198;-77
2023/04/03 06:04:09;;;;;;;15.63;8.93;;;;;;;;;;5112589;28;20206;-77
2023/04/03 06:06:47;;;;;;;12.57;8.43;;;;;;;;;;5100129;28;20674;-77
2023/04/03 06:09:16;;;;;;;9.20;8.20;;;;;;;;;;5100603;28;20701;-77
2023/04/03 06:11:43;;;;;;;12.87;8.23;;;;;;;;;;5112453;28;20193;-76
2023/04/03 06:14:11;;;;;;;10.37;7.83;;;;;;;;;;5101963;28;20698;-78
2023/04/03 06:16:39;;;;;;;11.37;8.00;;;;;;;;;;5112221;28;20656;-78
2023/04/03 06:19:06;;;;;;;10.67;8.33;;;;;;;;;;5093030;28;20750;-77
2023/04/03 06:21:33;;;;;;;12.90;8.60;;;;;;;;;;5102466;28;20197;-76
2023/04/03 06:24:01;;;;;;;12.83;8.17;;;;;;;;;;5111920;28;20294;-77
2023/04/03 06:26:30;;;;;;;11.23;8.00;;;;;;;;;;5111121;28;20209;-78
2023/04/03 06:28:57;;;;;;;12.87;7.80;;;;;;;;;;5110739;28;20285;-77
2023/04/03 06:31:25;;;;;;;11.10;8.63;;;;;;;;;;5095938;28;20285;-76
2023/04/03 06:33:52;;;;;;;11.30;8.33;;;;;;;;;;5106516;28;20198;-77
2023/04/03 06:36:20;;;;;;;12.73;8.50;;;;;;;;;;5098353;28;20289;-76
2023/04/03 06:38:48;;;;;;;11.93;8.00;;;;;;;;;;5104061;28;20229;-77
2023/04/03 06:41:16;;;;;;;10.63;7.60;;;;;;;;;;5111053;28;20225;-77
2023/04/03 06:43:45;;;;;;;14.10;8.10;;;;;;;;;;5101190;28;20663;-76
2023/04/03 06:46:16;;;;;;;11.93;8.13;;;;;;;;;;5101867;28;20252;-77
2023/04/03 06:48:43;;;;;;;12.00;8.20;;;;;;;;;;5110892;28;20773;-78
2023/04/03 06:51:15;;;;;;;12.30;8.20;;;;;;;;;;5111324;28;20228;-77
2023/04/03 06:53:42;;;;;;;14.67;8.30;;;;;;;;;;5093043;28;20234;-75
2023/04/03 06:56:10;;;;;;;11.50;8.33;;;;;;;;;;5091191;28;20655;-76
2023/04/03 06:58:37;;;;;;;10.17;8.17;;;;;;;;;;5091210;28;20196;-77
2023/04/03 07:01:06;;;;;;;13.63;8.30;;;;;;;;;;5091661;28;20260;-76
2023/04/03 07:03:33;;;;;;;13.33;8.50;;;;;;;;;;5092181;28;20222;-77
2023/04/03 07:06:00;;;;;;;11.67;8.33;;;;;;;;;;5091435;28;20298;-76
2023/04/03 07:08:28;;;;;;;12.47;8.43;;;;;;;;;;5091058;28;20651;-76
2023/04/03 07:10:56;;;;;;;10.43;8.00;;;;;;;;;;5091648;28;20758;-77
2023/04/03 07:13:23;;;;;;;12.70;8.30;;;;;;;;;;5102099;28;20682;-77
2023/04/03 07:15:50;;;;;;;12.93;8.50;;;;;;;;;;5111792;28;20313;-77
2023/04/03 07:18:18;;;;;;;13.47;8.30;;;;;;;;;;5105850;28;20229;-77
2023/04/03 07:20:46;;;;;;;13.53;8.80;;;;;;;;;;5107530;28;20301;-77
2023/04/03 07:23:13;;;;;;;12.73;9.23;;;;;;;;;;5111871;28;20218;-77
2023/04/03 07:25:44;;;;;;;12.13;8.70;;;;;;;;;;5111114;28;20234;-77
2023/04/03 07:28:11;;;;;;;11.87;8.67;;;;;;;;;;5112067;28;20274;-77
2023/04/03 07:30:43;;;;;;;12.60;9.13;;;;;;;;;;5111320;28;20200;-78
2023/04/03 07:33:11;;;;;;;12.37;9.23;;;;;;;;;;5111025;28;20583;-76
2023/04/03 07:35:40;;;;;;;16.10;9.50;;;;;;;;;;5106870;28;20228;-77
2023/04/03 07:38:07;;;;;;;11.80;9.07;;;;;;;;;;5110333;28;20290;-78
2023/04/03 07:40:35;;;;;;;13.07;9.37;;;;;;;;;;5111299;28;20222;-77
2023/04/03 07:43:02;;;;;;;13.90;9.50;;;;;;;;;;5110667;28;20683;-77
2023/04/03 07:45:29;;;;;;;13.77;9.43;;;;;;;;;;5111184;28;20226;-78
2023/04/03 07:47:57;;;;;;;12.60;8.90;;;;;;;;;;5111216;28;20310;-78
2023/04/03 07:50:24;;;;;;;13.37;9.53;;;;;;;;;;5108674;28;20200;-76
2023/04/03 07:52:54;;;;;;;13.20;8.77;;;;;;;;;;5106373;28;20230;-77
2023/04/03 07:55:21;;;;;;;12.83;9.13;;;;;;;;;;5110710;28;20222;-77
2023/04/03 07:57:48;;;;;;;14.07;9.40;;;;;;;;;;5109619;28;20283;-78
2023/04/03 08:00:17;;;;;;;13.83;9.23;;;;;;;;;;5113087;28;20232;-77
2023/04/03 08:02:50;;;;;;;15.00;9.87;;;;;;;;;;5115258;28;20195;-77
2023/04/03 08:05:17;;;;;;;14.13;10.30;;;;;;;;;;5131123;28;20208;-76
2023/04/03 08:07:44;;;;;;;66.10;41.73;;;;;;;;;;5118865;28;20662;-77
2023/04/03 08:10:13;;;;;;;39.80;29.40;;;;;;;;;;5090006;28;20208;-76
2023/04/03 08:12:40;;;;;;;15.83;11.87;;;;;;;;;;5094230;28;20647;-77
2023/04/03 08:15:08;;;;;;;29.63;25.90;;;;;;;;;;5108224;28;20322;-76
2023/04/03 08:17:35;;;;;;;31.80;21.67;;;;;;;;;;5113156;28;20230;-76
2023/04/03 08:20:02;;;;;;;17.97;13.50;;;;;;;;;;5108892;28;20195;-77
2023/04/03 08:22:30;;;;;;;29.13;23.37;;;;;;;;;;5109680;28;20292;-77
2023/04/03 08:24:57;;;;;;;36.93;29.13;;;;;;;;;;5109804;28;20203;-76
2023/04/03 08:27:26;;;;;;;13.57;10.17;;;;;;;;;;5110445;28;20224;-76
2023/04/03 08:29:53;;;;;;;20.23;15.37;;;;;;;;;;5110169;28;20666;-77
2023/04/03 08:32:20;;;;;;;15.80;11.07;;;;;;;;;;5110327;28;20250;-77
2023/04/03 08:34:48;;;;;;;16.50;11.10;;;;;;;;;;5109751;28;20301;-76
2023/04/03 08:37:16;;;;;;;28.10;20.70;;;;;;;;;;5110749;28;20255;-77
2023/04/03 08:39:43;;;;;;;28.33;20.37;;;;;;;;;;5111243;28;20200;-77
2023/04/03 08:42:16;;;;;;;55.30;31.50;;;;;;;;;;5113120;28;20246;-77
2023/04/03 08:44:48;;;;;;;35.47;24.30;;;;;;;;;;5114771;27;20240;-77
2023/04/03 08:47:20;;;;;;;86.63;60.87;;;;;;;;;;5114307;28;20324;-77
2023/04/03 08:49:51;;;;;;;80.67;53.30;;;;;;;;;;5114050;28;20235;-77
2023/04/03 08:52:20;;;;;;;42.50;27.77;;;;;;;;;;5114054;28;20204;-76
2023/04/03 08:54:51;;;;;;;184.50;97.73;;;;;;;;;;5114407;27;20205;-79
2023/04/03 08:57:19;;;;;;;58.90;35.23;;;;;;;;;;5114277;28;20204;-77
2023/04/03 08:59:47;;;;;;;105.70;56.23;;;;;;;;;;5114654;27;20201;-76
2023/04/03 09:02:22;;;;;;;21.00;14.37;;;;;;;;;;5114032;28;20599;-77
2023/04/03 09:04:49;;;;;;;101.17;59.37;;;;;;;;;;5114137;27;20224;-76
2023/04/03 09:07:23;;;;;;;28.63;19.17;;;;;;;;;;5114782;28;20544;-77
2023/04/03 09:09:51;;;;;;;39.17;27.27;;;;;;;;;;5114098;28;20632;-77
2023/04/03 09:12:20;;;;;;;56.80;38.17;;;;;;;;;;5113894;28;20725;-77
2023/04/03 09:14:53;;;;;;;64.83;40.63;;;;;;;;;;5113718;28;20606;-78
2023/04/03 09:17:23;;;;;;;35.23;23.93;;;;;;;;;;5113372;28;20292;-77
2023/04/03 09:19:54;;;;;;;63.63;41.90;;;;;;;;;;5114475;28;20372;-78
2023/04/03 09:22:23;;;;;;;64.10;40.20;;;;;;;;;;5113709;28;20243;-77
2023/04/03 09:24:54;;;;;;;97.53;56.53;;;;;;;;;;5113216;28;20202;-77
2023/04/03 09:27:21;;;;;;;24.60;18.23;;;;;;;;;;5113688;28;20190;-77
2023/04/03 09:29:54;;;;;;;13.10;9.53;;;;;;;;;;5113922;28;20281;-76
2023/04/03 09:32:23;;;;;;;16.10;13.63;;;;;;;;;;5112383;28;20193;-76
2023/04/03 09:34:50;;;;;;;13.03;9.60;;;;;;;;;;5113143;28;20674;-76
2023/04/03 09:37:35;;;;;;;19.97;16.67;;;;;;;;;;5113782;28;20193;-77
2023/04/03 09:40:03;;;;;;;12.03;9.60;;;;;;;;;;5113668;28;20296;-76
2023/04/03 09:42:32;;;;;;;18.07;15.73;;;;;;;;;;5113286;28;20190;-77
2023/04/03 09:45:01;;;;;;;24.17;20.03;;;;;;;;;;5113102;28;20662;-76
2023/04/03 09:47:29;;;;;;;23.03;19.93;;;;;;;;;;5112957;28;20287;-77
2023/04/03 09:50:11;;;;;;;14.07;11.67;;;;;;;;;;5113317;28;20201;-77
2023/04/03 09:52:39;;;;;;;13.53;10.93;;;;;;;;;;5113422;28;20221;-78
2023/04/03 09:55:09;;;;;;;21.27;17.87;;;;;;;;;;5113361;28;20206;-77
2023/04/03 09:57:36;;;;;;;12.03;10.27;;;;;;;;;;5113446;28;20196;-77
2023/04/03 10:00:05;;;;;;;12.67;9.63;;;;;;;;;;5113059;28;20217;-76
2023/04/03 10:02:35;;;;;;;11.83;9.30;;;;;;;;;;5110568;28;20221;-77
2023/04/03 10:05:03;;;;;;;12.03;9.67;;;;;;;;;;5110794;28;20233;-79
2023/04/03 10:07:34;;;;;;;12.70;10.37;;;;;;;;;;5113365;28;20225;-77
2023/04/03 10:10:03;;;;;;;11.43;8.93;;;;;;;;;;5112824;28;20276;-78
2023/04/03 10:12:30;;;;;;;11.80;8.93;;;;;;;;;;5112563;28;20207;-76
2023/04/03 10:14:58;;;;;;;12.47;11.17;;;;;;;;;;5112535;28;20735;-76
2023/04/03 10:17:34;;;;;;;12.60;9.30;;;;;;;;;;5112758;28;20391;-77
2023/04/03 10:20:03;;;;;;;10.43;9.03;;;;;;;;;;5113049;28;20195;-78
2023/04/03 10:22:39;;;;;;;12.20;9.40;;;;;;;;;;5113015;28;20216;-77
2023/04/03 10:25:13;;;;;;;11.97;9.63;;;;;;;;;;5112442;28;20733;-77
2023/04/03 10:27:50;;;;;;;20.00;18.10;;;;;;;;;;5112099;28;20228;-77
2023/04/03 10:30:22;;;;;;;13.47;10.33;;;;;;;;;;5112714;28;20198;-76
2023/04/03 10:33:06;;;;;;;9.23;7.87;;;;;;;;;;5112746;28;20632;-77
2023/04/03 10:35:41;;;;;;;9.73;8.30;;;;;;;;;;5112832;28;20264;-77
2023/04/03 10:38:11;;;;;;;9.60;7.77;;;;;;;;;;5110919;27;20236;-77
2023/04/03 10:40:42;;;;;;;10.33;8.63;;;;;;;;;;5112342;28;20291;-77
2023/04/03 10:43:11;;;;;;;10.63;8.57;;;;;;;;;;5112437;28;20281;-78
2023/04/03 10:45:52;;;;;;;10.37;9.17;;;;;;;;;;5111814;28;20225;-77
2023/04/03 10:48:27;;;;;;;10.10;8.30;;;;;;;;;;5111671;28;20252;-77
2023/04/03 10:50:59;;;;;;;9.53;8.40;;;;;;;;;;5112152;28;20276;-81
2023/04/03 10:53:32;;;;;;;10.07;8.70;;;;;;;;;;5115414;27;20560;-82
2023/04/03 10:56:03;;;;;;;10.90;8.83;;;;;;;;;;5132283;27;20229;-80
2023/04/03 10:58:32;;;;;;;9.80;8.43;;;;;;;;;;5128513;27;20217;-78
2023/04/03 11:01:01;;;;;;;10.00;8.20;;;;;;;;;;5112409;28;20280;-78
2023/04/03 11:03:32;;;;;;;9.53;8.40;;;;;;;;;;5109606;28;20244;-78
2023/04/03 11:06:01;;;;;;;8.63;7.70;;;;;;;;;;5109594;28;20201;-77
2023/04/03 11:08:31;;;;;;;8.73;7.70;;;;;;;;;;5110551;28;20255;-76
2023/04/03 11:10:59;;;;;;;8.93;8.03;;;;;;;;;;5108585;28;20738;-78
2023/04/03 11:13:30;;;;;;;9.17;7.70;;;;;;;;;;5110420;28;20205;-78
2023/04/03 11:15:58;;;;;;;8.03;6.57;;;;;;;;;;5108283;28;20582;-78
2023/04/03 11:18:28;;;;;;;7.33;6.17;;;;;;;;;;5110470;28;20197;-78
2023/04/03 11:21:02;;;;;;;6.87;6.23;;;;;;;;;;5110689;28;20776;-77
2023/04/03 11:23:33;;;;;;;7.20;6.43;;;;;;;;;;5110321;28;20217;-79
2023/04/03 11:26:04;;;;;;;7.10;6.40;;;;;;;;;;5110256;28;20747;-77
2023/04/03 11:28:31;;;;;;;10.60;9.60;;;;;;;;;;5109575;28;20251;-79
2023/04/03 11:31:04;;;;;;;7.37;6.53;;;;;;;;;;5111739;28;20285;-78
2023/04/03 11:33:38;;;;;;;6.77;6.07;;;;;;;;;;5112083;28;20224;-77
2023/04/03 11:36:09;;;;;;;7.60;6.80;;;;;;;;;;5111565;28;20259;-77
2023/04/03 11:38:39;;;;;;;8.87;7.80;;;;;;;;;;5111757;28;20197;-77
2023/04/03 11:41:07;;;;;;;8.30;7.27;;;;;;;;;;5111953;28;20206;-75
2023/04/03 11:43:35;;;;;;;7.00;6.30;;;;;;;;;;5111173;28;20288;-77
2023/04/03 11:46:05;;;;;;;7.23;6.37;;;;;;;;;;5111745;28;20269;-77
2023/04/03 11:48:46;;;;;;;8.33;7.43;;;;;;;;;;5107229;28;20221;-77
2023/04/03 11:51:37;;;;;;;7.13;6.43;;;;;;;;;;5102157;28;20262;-78
2023/04/03 11:54:19;;;;;;;7.77;6.97;;;;;;;;;;5090303;28;20225;-78
2023/04/03 11:56:48;;;;;;;7.70;7.00;;;;;;;;;;5109846;28;20225;-77
2023/04/03 11:59:24;;;;;;;7.60;6.73;;;;;;;;;;5111742;28;20229;-77
2023/04/03 12:01:52;;;;;;;7.87;6.77;;;;;;;;;;5111044;28;20300;-77
2023/04/03 12:04:20;;;;;;;8.37;6.80;;;;;;;;;;5110599;28;20200;-77
2023/04/03 12:07:04;;;;;;;9.60;6.10;;;;;;;;;;5110992;28;20259;-77
2023/04/03 12:09:36;;;;;;;6.70;6.00;;;;;;;;;;5110560;28;20198;-77
2023/04/03 12:12:27;;;;;;;6.50;5.80;;;;;;;;;;5110977;28;20185;-78
2023/04/03 12:14:54;;;;;;;6.90;6.20;;;;;;;;;;5111592;28;20659;-76
2023/04/03 12:17:25;;;;;;;6.87;6.13;;;;;;;;;;5115305;28;20229;-78
2023/04/03 12:19:52;;;;;;;8.70;7.37;;;;;;;;;;5115197;28;20193;-77
2023/04/03 12:22:20;;;;;;;11.50;10.40;;;;;;;;;;5115348;28;20745;-77
2023/04/03 12:24:49;;;;;;;9.77;8.87;;;;;;;;;;5115193;28;20197;-77
2023/04/03 12:27:34;;;;;;;6.93;6.33;;;;;;;;;;5114899;28;20285;-77
2023/04/03 12:30:05;;;;;;;7.10;6.40;;;;;;;;;;5115387;28;20197;-77
2023/04/03 12:32:46;;;;;;;7.87;7.07;;;;;;;;;;5101700;28;20225;-78
2023/04/03 12:35:20;;;;;;;11.80;10.57;;;;;;;;;;5094390;28;20194;-77
2023/04/03 12:37:58;;;;;;;8.40;7.60;;;;;;;;;;5094363;28;20751;-77
2023/04/03 12:40:28;;;;;;;7.22;6.53;;;;;;;;;;5113797;28;20300;-77
2023/04/03 12:43:14;;;;;;;19.55;17.55;;;;;;;;;;5102639;28;20313;-78
2023/04/03 12:45:45;;;;;;;7.47;6.75;;;;;;;;;;5094346;28;20285;-78
2023/04/03 12:48:16;;;;;;;8.07;7.28;;;;;;;;;;5094469;28;20325;-77
2023/04/03 12:50:44;;;;;;;5.95;5.40;;;;;;;;;;5094339;28;20197;-77
2023/04/03 12:53:14;;;;;;;33.20;29.60;;;;;;;;;;5093857;28;20581;-78
2023/04/03 12:55:41;;;;;;;7.10;6.40;;;;;;;;;;5098825;28;20283;-77
2023/04/03 12:58:16;;;;;;;6.30;5.70;;;;;;;;;;5114572;28;20702;-78
2023/04/03 13:00:44;;;;;;;7.53;6.83;;;;;;;;;;5114224;28;20280;-78
2023/04/03 13:03:23;;;;;;;6.13;5.53;;;;;;;;;;5111210;28;20213;-78
2023/04/03 13:05:50;;;;;;;5.97;5.40;;;;;;;;;;5094270;28;20225;-78
2023/04/03 13:08:19;;;;;;;11.83;10.73;;;;;;;;;;5093925;28;20671;-77
2023/04/03 13:10:52;;;;;;;6.20;5.60;;;;;;;;;;5093867;28;20210;-77
2023/04/03 13:13:19;;;;;;;8.23;7.07;;;;;;;;;;5104067;28;20232;-77
2023/04/03 13:15:50;;;;;;;7.00;6.03;;;;;;;;;;5113853;28;20289;-78
2023/04/03 13:18:24;;;;;;;6.97;6.27;;;;;;;;;;5113990;28;20320;-77
2023/04/03 13:20:51;;;;;;;6.77;6.17;;;;;;;;;;5114323;28;20201;-79
2023/04/03 13:23:20;;;;;;;6.70;6.00;;;;;;;;;;5113640;28;20232;-78
2023/04/03 13:25:48;;;;;;;9.97;9.00;;;;;;;;;;5114407;28;20189;-78
2023/04/03 13:28:17;;;;;;;11.60;9.90;;;;;;;;;;5113338;28;20572;-78
2023/04/03 13:30:57;;;;;;;9.60;8.60;;;;;;;;;;5114181;28;20194;-77
2023/04/03 13:33:27;;;;;;;10.00;9.00;;;;;;;;;;5113866;28;20664;-77
2023/04/03 13:35:58;;;;;;;7.05;6.35;;;;;;;;;;5113760;28;20201;-78
2023/04/03 13:38:27;;;;;;;7.45;6.75;;;;;;;;;;5113696;28;20261;-77
2023/04/03 13:40:55;;;;;;;6.15;5.60;;;;;;;;;;5113807;28;20190;-78
2023/04/03 13:43:24;;;;;;;11.65;10.52;;;;;;;;;;5114055;28;20217;-78
2023/04/03 13:45:58;;;;;;;7.85;6.82;;;;;;;;;;5113154;28;20204;-78
2023/04/03 13:48:25;;;;;;;23.10;20.80;;;;;;;;;;5112631;28;20265;-78
2023/04/03 13:50:58;;;;;;;7.30;6.68;;;;;;;;;;5107385;28;20276;-78
2023/04/03 13:53:25;;;;;;;6.32;5.65;;;;;;;;;;5105842;28;20225;-78
2023/04/03 13:55:55;;;;;;;5.93;5.32;;;;;;;;;;5100242;28;20309;-78
2023/04/03 13:58:24;;;;;;;5.85;5.35;;;;;;;;;;5093392;28;20242;-78
2023/04/03 14:00:52;;;;;;;10.55;9.35;;;;;;;;;;5112425;28;20206;-77
2023/04/03 14:03:23;;;;;;;6.65;5.97;;;;;;;;;;5112902;28;20194;-77
2023/04/03 14:05:50;;;;;;;11.70;10.30;;;;;;;;;;5103087;28;20201;-78
2023/04/03 14:08:17;;;;;;;10.00;9.00;;;;;;;;;;5099484;28;20288;-78
2023/04/03 14:10:45;;;;;;;10.02;8.98;;;;;;;;;;5106259;28;20723;-78
2023/04/03 14:13:13;;;;;;;12.38;10.80;;;;;;;;;;5101241;28;20316;-78
2023/04/03 14:15:40;;;;;;;13.90;12.43;;;;;;;;;;5113275;28;20228;-78
2023/04/03 14:18:08;;;;;;;26.45;22.17;;;;;;;;;;5106995;28;20257;-77
2023/04/03 14:20:36;;;;;;;19.52;15.88;;;;;;;;;;5092721;28;20647;-76
2023/04/03 14:23:04;;;;;;;8.07;7.20;;;;;;;;;;5092636;28;20285;-77
2023/04/03 14:25:31;;;;;;;12.50;11.20;;;;;;;;;;5099936;28;20209;-78
2023/04/03 14:27:59;;;;;;;7.32;6.47;;;;;;;;;;5092154;28;20194;-77
2023/04/03 14:30:28;;;;;;;7.47;6.68;;;;;;;;;;5092551;28;20297;-78
2023/04/03 14:32:55;;;;;;;7.65;6.85;;;;;;;;;;5092787;28;20683;-78
2023/04/03 14:35:22;;;;;;;7.20;6.50;;;;;;;;;;5092424;28;20289;-77
2023/04/03 14:37:52;;;;;;;6.47;5.88;;;;;;;;;;5092113;28;20321;-78
2023/04/03 14:40:21;;;;;;;8.82;7.93;;;;;;;;;;5091763;28;20230;-77
2023/04/03 14:42:48;;;;;;;28.13;25.20;;;;;;;;;;5092052;28;20286;-77